METAR Data

Data at: 1150 UTC 24 May 2022

METAR for:KUUU (Newport State Arpt, RI, US)
Text:KUUU 241053Z AUTO 04012KT 10SM SCT110 12/06 A3029 RMK AO2 SLP256 T01220056 TSNO
Temperature: 12.2°C ( 54°F)
Dewpoint: 5.6°C ( 42°F) [RH = 64%]
Pressure (altimeter):30.29 inches Hg (1025.8 mb) [Sea level pressure: 1025.6 mb]
Winds:from the NE (40 degrees) at 14 MPH (12 knots; 6.2 m/s)
Visibility:10 or more sm (16+ km)
Ceiling:at least 12,000 feet AGL
Clouds: scattered clouds at 11000 feet AGL
QC Flag:automated observation with no human augmentation